Terminal Aerodrome Forecast
Issued by NWS

Home | Current Version | Previous Version | Text Only | Print | Product List | Glossary On
Versions: 1 2 3 4 5 6 7 8 9 10 11 12 13 14 15 16
000
FTUS44 KLZK 302300 RRA
TAFLIT
TAF
KLIT 302341Z 3100/3124 17005KT P6SM VCSH SCT025 BKN080
      TEMPO 3104/3108 5SM BR BKN025
     FM310800 21004KT 5SM BR SCT020 BKN060
      TEMPO 3109/3113 2SM BR BKN015
     FM311500 21009KT P6SM SCT040 BKN250=

USA.gov is the U.S. government's official web portal to all federal, state and local government web resources and services.